Terminal Aerodrome Forecast
Issued by NWS

Home | Current Version | Previous Version | Text Only | Print | Product List | Glossary On
Versions: 1 2 3 4 5 6 7 8 9 10 11 12 13 14 15 16 17 18
000
FTUS43 KPAH 271700
TAFCGI
TAF
KCGI 271725Z 2718/2818 20018G28KT P6SM BKN250
     FM272300 19011KT P6SM FEW040 BKN250
     FM280900 22009KT P6SM VCSH BKN045
      TEMPO 2811/2814 5SM SHRA BR BKN025
     FM281400 30007KT P6SM SCT045 BKN080=

USA.gov is the U.S. government's official web portal to all federal, state and local government web resources and services.